sensor_id;sensor_type;location;lat;lon;timestamp;pressure;altitude;pressure_sealevel;temperature;humidity
78888;BME280;68276;49.326;8.690;2024-02-23T00:01:35;98216.03;;;8.40;75.27
78888;BME280;68276;49.326;8.690;2024-02-23T00:04:01;98211.31;;;8.35;76.05
78888;BME280;68276;49.326;8.690;2024-02-23T00:06:28;98215.19;;;8.39;75.25
78888;BME280;68276;49.326;8.690;2024-02-23T00:08:54;98226.34;;;8.36;75.26
78888;BME280;68276;49.326;8.690;2024-02-23T00:11:22;98252.75;;;8.33;75.92
78888;BME280;68276;49.326;8.690;2024-02-23T00:13:48;98238.53;;;8.32;75.71
78888;BME280;68276;49.326;8.690;2024-02-23T00:16:13;98252.78;;;8.26;76.23
78888;BME280;68276;49.326;8.690;2024-02-23T00:18:39;98250.31;;;8.25;77.13
78888;BME280;68276;49.326;8.690;2024-02-23T00:21:04;98239.28;;;8.14;78.87
78888;BME280;68276;49.326;8.690;2024-02-23T00:23:30;98264.25;;;8.08;79.61
78888;BME280;68276;49.326;8.690;2024-02-23T00:25:55;98254.56;;;8.07;80.58
78888;BME280;68276;49.326;8.690;2024-02-23T00:28:21;98252.97;;;8.06;80.51
78888;BME280;68276;49.326;8.690;2024-02-23T00:30:46;98249.22;;;8.07;80.86
78888;BME280;68276;49.326;8.690;2024-02-23T00:33:11;98263.69;;;8.00;81.93
78888;BME280;68276;49.326;8.690;2024-02-23T00:35:37;98275.81;;;8.02;80.72
78888;BME280;68276;49.326;8.690;2024-02-23T00:38:02;98270.31;;;7.97;82.08
78888;BME280;68276;49.326;8.690;2024-02-23T00:40:28;98278.16;;;7.92;81.72
78888;BME280;68276;49.326;8.690;2024-02-23T00:42:53;98292.56;;;7.91;80.97
78888;BME280;68276;49.326;8.690;2024-02-23T00:45:19;98295.22;;;7.91;81.12
78888;BME280;68276;49.326;8.690;2024-02-23T00:47:44;98294.28;;;7.79;81.90
78888;BME280;68276;49.326;8.690;2024-02-23T00:50:12;98298.22;;;7.77;82.07
78888;BME280;68276;49.326;8.690;2024-02-23T00:52:37;98295.78;;;7.75;78.95
78888;BME280;68276;49.326;8.690;2024-02-23T00:55:02;98291.47;;;7.74;78.83
78888;BME280;68276;49.326;8.690;2024-02-23T00:57:28;98284.03;;;7.76;76.58
78888;BME280;68276;49.326;8.690;2024-02-23T00:59:56;98280.75;;;7.74;76.14
78888;BME280;68276;49.326;8.690;2024-02-23T01:02:21;98296.41;;;7.71;76.01
78888;BME280;68276;49.326;8.690;2024-02-23T01:04:47;98292.56;;;7.67;76.06
78888;BME280;68276;49.326;8.690;2024-02-23T01:07:12;98302.25;;;7.61;76.59
78888;BME280;68276;49.326;8.690;2024-02-23T01:09:38;98308.59;;;7.60;76.57
78888;BME280;68276;49.326;8.690;2024-02-23T01:12:03;98315.00;;;7.59;75.88
78888;BME280;68276;49.326;8.690;2024-02-23T01:14:29;98319.97;;;7.56;76.45
78888;BME280;68276;49.326;8.690;2024-02-23T01:16:54;98320.00;;;7.49;76.78
78888;BME280;68276;49.326;8.690;2024-02-23T01:19:19;98312.22;;;7.48;77.93
78888;BME280;68276;49.326;8.690;2024-02-23T01:21:45;98317.78;;;7.40;79.07
78888;BME280;68276;49.326;8.690;2024-02-23T01:24:10;98317.38;;;7.36;79.97
78888;BME280;68276;49.326;8.690;2024-02-23T01:26:36;98308.00;;;7.27;81.25
78888;BME280;68276;49.326;8.690;2024-02-23T01:29:01;98314.97;;;7.28;80.62
78888;BME280;68276;49.326;8.690;2024-02-23T01:31:28;98317.03;;;7.26;81.32
78888;BME280;68276;49.326;8.690;2024-02-23T01:33:54;98317.91;;;7.20;82.27
78888;BME280;68276;49.326;8.690;2024-02-23T01:36:19;98330.22;;;7.21;82.69
78888;BME280;68276;49.326;8.690;2024-02-23T01:38:44;98332.28;;;7.19;82.57
78888;BME280;68276;49.326;8.690;2024-02-23T01:41:10;98337.59;;;7.19;82.14
78888;BME280;68276;49.326;8.690;2024-02-23T01:43:37;98326.31;;;7.17;82.02
78888;BME280;68276;49.326;8.690;2024-02-23T01:46:03;98320.97;;;7.17;81.75
78888;BME280;68276;49.326;8.690;2024-02-23T01:48:32;98322.66;;;7.12;82.06
78888;BME280;68276;49.326;8.690;2024-02-23T01:50:58;98335.41;;;7.10;81.66
78888;BME280;68276;49.326;8.690;2024-02-23T01:53:24;98339.31;;;7.07;81.77
78888;BME280;68276;49.326;8.690;2024-02-23T01:55:51;98351.03;;;7.06;82.12
78888;BME280;68276;49.326;8.690;2024-02-23T01:58:18;98358.59;;;7.09;82.23
78888;BME280;68276;49.326;8.690;2024-02-23T02:00:44;98366.41;;;7.11;81.88
78888;BME280;68276;49.326;8.690;2024-02-23T02:03:10;98377.88;;;7.18;80.89
78888;BME280;68276;49.326;8.690;2024-02-23T02:05:36;98382.59;;;7.16;81.15
78888;BME280;68276;49.326;8.690;2024-02-23T02:08:02;98377.47;;;7.14;80.72
78888;BME280;68276;49.326;8.690;2024-02-23T02:10:28;98377.47;;;7.14;80.75
78888;BME280;68276;49.326;8.690;2024-02-23T02:12:53;98387.53;;;7.12;80.50
78888;BME280;68276;49.326;8.690;2024-02-23T02:15:19;98381.19;;;7.13;79.93
78888;BME280;68276;49.326;8.690;2024-02-23T02:17:47;98383.88;;;7.13;79.34
78888;BME280;68276;49.326;8.690;2024-02-23T02:20:13;98384.44;;;7.15;79.54
78888;BME280;68276;49.326;8.690;2024-02-23T02:22:39;98395.13;;;7.15;79.06
78888;BME280;68276;49.326;8.690;2024-02-23T02:25:05;98392.06;;;7.18;77.61
78888;BME280;68276;49.326;8.690;2024-02-23T02:27:31;98389.78;;;7.22;77.67
78888;BME280;68276;49.326;8.690;2024-02-23T02:29:56;98398.84;;;7.14;78.78
78888;BME280;68276;49.326;8.690;2024-02-23T02:32:22;98405.19;;;7.20;78.47
78888;BME280;68276;49.326;8.690;2024-02-23T02:34:48;98401.09;;;7.17;77.57
78888;BME280;68276;49.326;8.690;2024-02-23T02:37:14;98406.22;;;7.19;78.65
78888;BME280;68276;49.326;8.690;2024-02-23T02:39:39;98403.97;;;7.16;78.91
78888;BME280;68276;49.326;8.690;2024-02-23T02:42:05;98414.84;;;7.14;78.84
78888;BME280;68276;49.326;8.690;2024-02-23T02:44:30;98413.41;;;7.18;78.30
78888;BME280;68276;49.326;8.690;2024-02-23T02:46:59;98408.28;;;7.17;79.35
78888;BME280;68276;49.326;8.690;2024-02-23T02:49:24;98406.44;;;7.24;78.93
78888;BME280;68276;49.326;8.690;2024-02-23T02:51:50;98407.25;;;7.18;78.63
78888;BME280;68276;49.326;8.690;2024-02-23T02:54:16;98400.69;;;7.20;78.42
78888;BME280;68276;49.326;8.690;2024-02-23T02:56:47;98399.44;;;7.23;78.30
78888;BME280;68276;49.326;8.690;2024-02-23T02:59:12;98396.34;;;7.19;78.20
78888;BME280;68276;49.326;8.690;2024-02-23T03:01:39;98413.59;;;7.23;78.18
78888;BME280;68276;49.326;8.690;2024-02-23T03:04:04;98404.38;;;7.19;78.90
78888;BME280;68276;49.326;8.690;2024-02-23T03:06:29;98405.00;;;7.15;79.79
78888;BME280;68276;49.326;8.690;2024-02-23T03:08:55;98408.09;;;7.18;79.72
78888;BME280;68276;49.326;8.690;2024-02-23T03:11:20;98412.38;;;7.19;79.67
78888;BME280;68276;49.326;8.690;2024-02-23T03:13:45;98409.72;;;7.19;80.40
78888;BME280;68276;49.326;8.690;2024-02-23T03:16:17;98404.59;;;7.18;80.15
78888;BME280;68276;49.326;8.690;2024-02-23T03:18:43;98413.22;;;7.20;80.78
78888;BME280;68276;49.326;8.690;2024-02-23T03:21:08;98419.78;;;7.11;80.14
78888;BME280;68276;49.326;8.690;2024-02-23T03:23:35;98412.19;;;7.14;79.70
78888;BME280;68276;49.326;8.690;2024-02-23T03:26:01;98412.19;;;7.14;78.99
78888;BME280;68276;49.326;8.690;2024-02-23T03:28:26;98421.03;;;7.15;78.99
78888;BME280;68276;49.326;8.690;2024-02-23T03:30:52;98422.66;;;7.16;78.15
78888;BME280;68276;49.326;8.690;2024-02-23T03:33:17;98418.38;;;7.08;76.78
78888;BME280;68276;49.326;8.690;2024-02-23T03:35:43;98411.56;;;7.12;76.84
78888;BME280;68276;49.326;8.690;2024-02-23T03:38:08;98413.22;;;7.13;75.61
78888;BME280;68276;49.326;8.690;2024-02-23T03:40:33;98408.91;;;7.12;75.61
78888;BME280;68276;49.326;8.690;2024-02-23T03:43:01;98405.44;;;7.12;76.22
78888;BME280;68276;49.326;8.690;2024-02-23T03:45:27;98405.03;;;7.08;75.28
78888;BME280;68276;49.326;8.690;2024-02-23T03:47:52;98415.09;;;7.06;75.20
78888;BME280;68276;49.326;8.690;2024-02-23T03:50:18;98412.22;;;7.08;75.32
78888;BME280;68276;49.326;8.690;2024-02-23T03:52:43;98411.38;;;7.07;75.39
78888;BME280;68276;49.326;8.690;2024-02-23T03:55:09;98415.91;;;7.00;75.26
78888;BME280;68276;49.326;8.690;2024-02-23T03:57:34;98408.97;;;6.99;75.00
78888;BME280;68276;49.326;8.690;2024-02-23T04:00:00;98409.75;;;6.99;75.31
78888;BME280;68276;49.326;8.690;2024-02-23T04:02:25;98409.38;;;6.96;75.30
78888;BME280;68276;49.326;8.690;2024-02-23T04:04:50;98407.91;;;7.00;75.70
78888;BME280;68276;49.326;8.690;2024-02-23T04:07:16;98420.66;;;6.98;75.89
78888;BME280;68276;49.326;8.690;2024-02-23T04:09:41;98424.34;;;6.97;76.46
78888;BME280;68276;49.326;8.690;2024-02-23T04:12:07;98438.53;;;6.91;76.47
78888;BME280;68276;49.326;8.690;2024-02-23T04:14:35;98432.59;;;6.89;77.94
78888;BME280;68276;49.326;8.690;2024-02-23T04:17:03;98439.16;;;6.86;78.37
78888;BME280;68276;49.326;8.690;2024-02-23T04:19:29;98452.31;;;6.75;79.96
78888;BME280;68276;49.326;8.690;2024-02-23T04:21:54;98450.69;;;6.61;81.29
78888;BME280;68276;49.326;8.690;2024-02-23T04:24:20;98454.34;;;6.60;82.77
78888;BME280;68276;49.326;8.690;2024-02-23T04:26:45;98448.03;;;6.54;82.98
78888;BME280;68276;49.326;8.690;2024-02-23T04:29:11;98448.44;;;6.58;80.23
78888;BME280;68276;49.326;8.690;2024-02-23T04:31:37;98450.28;;;6.57;81.41
78888;BME280;68276;49.326;8.690;2024-02-23T04:34:02;98452.31;;;6.55;79.00
78888;BME280;68276;49.326;8.690;2024-02-23T04:36:28;98448.81;;;6.55;79.35
78888;BME280;68276;49.326;8.690;2024-02-23T04:38:54;98452.75;;;6.52;80.56
78888;BME280;68276;49.326;8.690;2024-02-23T04:41:20;98449.66;;;6.49;79.43
78888;BME280;68276;49.326;8.690;2024-02-23T04:43:46;98455.00;;;6.49;79.57
78888;BME280;68276;49.326;8.690;2024-02-23T04:46:11;98466.66;;;6.48;79.68
78888;BME280;68276;49.326;8.690;2024-02-23T04:48:37;98453.34;;;6.48;79.27
78888;BME280;68276;49.326;8.690;2024-02-23T04:51:03;98445.97;;;6.43;79.51
78888;BME280;68276;49.326;8.690;2024-02-23T04:53:28;98437.97;;;6.37;79.81
78888;BME280;68276;49.326;8.690;2024-02-23T04:55:54;98439.38;;;6.33;80.32
78888;BME280;68276;49.326;8.690;2024-02-23T04:58:19;98437.34;;;6.35;80.30
78888;BME280;68276;49.326;8.690;2024-02-23T05:00:46;98439.38;;;6.33;79.66
78888;BME280;68276;49.326;8.690;2024-02-23T05:03:11;98436.09;;;6.31;79.58
78888;BME280;68276;49.326;8.690;2024-02-23T05:05:36;98441.63;;;6.29;79.64
78888;BME280;68276;49.326;8.690;2024-02-23T05:08:02;98460.94;;;6.25;78.62
78888;BME280;68276;49.326;8.690;2024-02-23T05:10:28;98448.19;;;6.20;79.86
78888;BME280;68276;49.326;8.690;2024-02-23T05:12:53;98447.16;;;6.15;79.14
78888;BME280;68276;49.326;8.690;2024-02-23T05:15:19;98454.13;;;6.16;79.22
78888;BME280;68276;49.326;8.690;2024-02-23T05:17:44;98457.44;;;6.18;79.27
78888;BME280;68276;49.326;8.690;2024-02-23T05:20:10;98468.47;;;6.15;79.28
78888;BME280;68276;49.326;8.690;2024-02-23T05:22:36;98469.50;;;6.14;78.54
78888;BME280;68276;49.326;8.690;2024-02-23T05:25:02;98462.34;;;6.08;79.01
78888;BME280;68276;49.326;8.690;2024-02-23T05:27:28;98467.03;;;6.06;78.83
78888;BME280;68276;49.326;8.690;2024-02-23T05:29:54;98468.03;;;6.05;79.59
78888;BME280;68276;49.326;8.690;2024-02-23T05:32:19;98474.41;;;6.04;79.27
78888;BME280;68276;49.326;8.690;2024-02-23T05:34:44;98470.50;;;6.00;78.77
78888;BME280;68276;49.326;8.690;2024-02-23T05:37:10;98471.75;;;6.04;79.44
78888;BME280;68276;49.326;8.690;2024-02-23T05:39:35;98486.50;;;6.06;78.06
78888;BME280;68276;49.326;8.690;2024-02-23T05:42:03;98486.31;;;6.08;78.96
78888;BME280;68276;49.326;8.690;2024-02-23T05:44:28;98478.75;;;6.11;78.39
78888;BME280;68276;49.326;8.690;2024-02-23T05:46:54;98479.97;;;6.15;77.88
78888;BME280;68276;49.326;8.690;2024-02-23T05:49:19;98480.59;;;6.17;77.22
78888;BME280;68276;49.326;8.690;2024-02-23T05:51:44;98486.34;;;6.21;76.77
78888;BME280;68276;49.326;8.690;2024-02-23T05:54:10;98493.72;;;6.19;76.48
78888;BME280;68276;49.326;8.690;2024-02-23T05:56:35;98498.41;;;6.17;76.22
78888;BME280;68276;49.326;8.690;2024-02-23T05:59:02;98497.22;;;6.19;75.67
78888;BME280;68276;49.326;8.690;2024-02-23T06:01:28;98495.75;;;6.17;75.76
78888;BME280;68276;49.326;8.690;2024-02-23T06:03:53;98488.78;;;6.16;74.23
78888;BME280;68276;49.326;8.690;2024-02-23T06:06:20;98494.34;;;6.14;74.37
78888;BME280;68276;49.326;8.690;2024-02-23T06:08:46;98488.59;;;6.11;74.11
78888;BME280;68276;49.326;8.690;2024-02-23T06:11:11;98501.06;;;6.04;73.82
78888;BME280;68276;49.326;8.690;2024-02-23T06:13:37;98495.09;;;5.95;74.53
78888;BME280;68276;49.326;8.690;2024-02-23T06:16:03;98501.44;;;5.94;74.47
78888;BME280;68276;49.326;8.690;2024-02-23T06:18:29;98513.13;;;5.87;74.45
78888;BME280;68276;49.326;8.690;2024-02-23T06:20:54;98518.66;;;5.85;74.48
78888;BME280;68276;49.326;8.690;2024-02-23T06:23:19;98506.06;;;5.79;75.03
78888;BME280;68276;49.326;8.690;2024-02-23T06:25:47;98520.63;;;5.76;74.70
78888;BME280;68276;49.326;8.690;2024-02-23T06:28:12;98509.34;;;5.74;74.80
78888;BME280;68276;49.326;8.690;2024-02-23T06:30:40;98510.94;;;5.62;75.76
78888;BME280;68276;49.326;8.690;2024-02-23T06:33:05;98510.94;;;5.62;75.36
78888;BME280;68276;49.326;8.690;2024-02-23T06:35:31;98511.19;;;5.74;73.92
78888;BME280;68276;49.326;8.690;2024-02-23T06:37:57;98508.28;;;5.69;74.40
78888;BME280;68276;49.326;8.690;2024-02-23T06:40:22;98511.13;;;5.61;75.27
78888;BME280;68276;49.326;8.690;2024-02-23T06:42:48;98510.09;;;5.55;75.02
78888;BME280;68276;49.326;8.690;2024-02-23T06:45:13;98509.25;;;5.55;74.34
78888;BME280;68276;49.326;8.690;2024-02-23T06:47:38;98513.41;;;5.64;73.63
78888;BME280;68276;49.326;8.690;2024-02-23T06:50:05;98502.94;;;5.62;73.13
78888;BME280;68276;49.326;8.690;2024-02-23T06:52:31;98510.53;;;5.65;73.35
78888;BME280;68276;49.326;8.690;2024-02-23T06:54:58;98511.94;;;5.61;73.85
78888;BME280;68276;49.326;8.690;2024-02-23T06:57:23;98505.97;;;5.59;74.03
78888;BME280;68276;49.326;8.690;2024-02-23T06:59:51;98504.97;;;5.60;73.11
78888;BME280;68276;49.326;8.690;2024-02-23T07:02:16;98503.16;;;5.61;73.22
78888;BME280;68276;49.326;8.690;2024-02-23T07:04:41;98518.13;;;5.68;72.42
78888;BME280;68276;49.326;8.690;2024-02-23T07:07:07;98517.06;;;5.63;73.77
78888;BME280;68276;49.326;8.690;2024-02-23T07:09:33;98519.94;;;5.61;73.80
78888;BME280;68276;49.326;8.690;2024-02-23T07:11:59;98518.28;;;5.60;73.28
78888;BME280;68276;49.326;8.690;2024-02-23T07:14:25;98516.41;;;5.54;73.65
78888;BME280;68276;49.326;8.690;2024-02-23T07:16:50;98519.06;;;5.54;73.93
78888;BME280;68276;49.326;8.690;2024-02-23T07:19:19;98513.94;;;5.53;74.01
78888;BME280;68276;49.326;8.690;2024-02-23T07:21:45;98530.13;;;5.51;73.85
78888;BME280;68276;49.326;8.690;2024-02-23T07:24:11;98532.38;;;5.54;74.48
78888;BME280;68276;49.326;8.690;2024-02-23T07:26:36;98527.91;;;5.61;73.31
78888;BME280;68276;49.326;8.690;2024-02-23T07:29:01;98532.84;;;5.64;73.13
78888;BME280;68276;49.326;8.690;2024-02-23T07:31:27;98532.63;;;5.59;73.63
78888;BME280;68276;49.326;8.690;2024-02-23T07:33:52;98539.19;;;5.57;74.02
78888;BME280;68276;49.326;8.690;2024-02-23T07:36:19;98539.19;;;5.57;74.61
78888;BME280;68276;49.326;8.690;2024-02-23T07:38:44;98540.19;;;5.56;74.06
78888;BME280;68276;49.326;8.690;2024-02-23T07:41:11;98546.13;;;5.58;74.23
78888;BME280;68276;49.326;8.690;2024-02-23T07:43:38;98548.16;;;5.56;74.33
78888;BME280;68276;49.326;8.690;2024-02-23T07:46:03;98540.38;;;5.54;75.01
78888;BME280;68276;49.326;8.690;2024-02-23T07:48:30;98552.25;;;5.52;74.79
78888;BME280;68276;49.326;8.690;2024-02-23T07:50:55;98551.63;;;5.50;76.24
78888;BME280;68276;49.326;8.690;2024-02-23T07:53:21;98557.00;;;5.56;75.13
78888;BME280;68276;49.326;8.690;2024-02-23T07:55:46;98550.25;;;5.60;74.40
78888;BME280;68276;49.326;8.690;2024-02-23T07:58:12;98561.34;;;5.64;75.35
78888;BME280;68276;49.326;8.690;2024-02-23T08:00:37;98556.91;;;5.77;74.25
78888;BME280;68276;49.326;8.690;2024-02-23T08:03:04;98562.31;;;5.91;74.13
78888;BME280;68276;49.326;8.690;2024-02-23T08:05:29;98554.16;;;5.99;73.81
78888;BME280;68276;49.326;8.690;2024-02-23T08:07:54;98544.13;;;6.07;73.33
78888;BME280;68276;49.326;8.690;2024-02-23T08:10:20;98548.06;;;6.18;72.60
78888;BME280;68276;49.326;8.690;2024-02-23T08:12:46;98553.00;;;6.34;71.86
78888;BME280;68276;49.326;8.690;2024-02-23T08:15:11;98544.22;;;6.53;71.10
78888;BME280;68276;49.326;8.690;2024-02-23T08:17:37;98558.63;;;6.78;70.55
78888;BME280;68276;49.326;8.690;2024-02-23T08:20:02;98546.72;;;7.00;69.14
78888;BME280;68276;49.326;8.690;2024-02-23T08:22:29;98560.91;;;7.27;68.51
78888;BME280;68276;49.326;8.690;2024-02-23T08:24:54;98551.44;;;7.24;68.31
78888;BME280;68276;49.326;8.690;2024-02-23T08:27:19;98539.50;;;7.46;68.88
78888;BME280;68276;49.326;8.690;2024-02-23T08:29:45;98536.59;;;7.54;67.46
78888;BME280;68276;49.326;8.690;2024-02-23T08:32:10;98540.88;;;7.68;68.06
78888;BME280;68276;49.326;8.690;2024-02-23T08:34:36;98543.34;;;7.63;66.76
78888;BME280;68276;49.326;8.690;2024-02-23T08:37:01;98534.97;;;7.47;68.39
78888;BME280;68276;49.326;8.690;2024-02-23T08:39:27;98539.88;;;7.50;67.67
78888;BME280;68276;49.326;8.690;2024-02-23T08:41:53;98537.19;;;7.50;68.49
78888;BME280;68276;49.326;8.690;2024-02-23T08:44:20;98530.06;;;7.37;68.58
78888;BME280;68276;49.326;8.690;2024-02-23T08:46:46;98524.28;;;7.40;68.06
78888;BME280;68276;49.326;8.690;2024-02-23T08:49:13;98527.16;;;7.45;68.15
78888;BME280;68276;49.326;8.690;2024-02-23T08:51:39;98529.22;;;7.43;68.73
78888;BME280;68276;49.326;8.690;2024-02-23T08:54:04;98524.66;;;7.57;68.55
78888;BME280;68276;49.326;8.690;2024-02-23T08:56:30;98523.38;;;7.72;68.79
78888;BME280;68276;49.326;8.690;2024-02-23T08:58:57;98519.66;;;7.80;67.85
78888;BME280;68276;49.326;8.690;2024-02-23T09:01:23;98518.81;;;7.86;67.71
78888;BME280;68276;49.326;8.690;2024-02-23T09:03:48;98515.13;;;7.80;67.91
78888;BME280;68276;49.326;8.690;2024-02-23T09:06:13;98510.28;;;8.08;66.92
78888;BME280;68276;49.326;8.690;2024-02-23T09:08:39;98507.94;;;8.25;66.62
78888;BME280;68276;49.326;8.690;2024-02-23T09:11:06;98507.31;;;8.23;65.80
78888;BME280;68276;49.326;8.690;2024-02-23T09:13:31;98512.53;;;8.49;65.35
78888;BME280;68276;49.326;8.690;2024-02-23T09:15:56;98499.38;;;8.48;64.75
78888;BME280;68276;49.326;8.690;2024-02-23T09:18:22;98503.41;;;8.57;63.81
78888;BME280;68276;49.326;8.690;2024-02-23T09:20:48;98507.13;;;8.56;62.44
78888;BME280;68276;49.326;8.690;2024-02-23T09:23:13;98506.44;;;8.36;63.66
78888;BME280;68276;49.326;8.690;2024-02-23T09:25:39;98496.97;;;8.33;63.09
78888;BME280;68276;49.326;8.690;2024-02-23T09:28:04;98501.13;;;8.29;63.88
78888;BME280;68276;49.326;8.690;2024-02-23T09:30:30;98502.81;;;8.24;63.57
78888;BME280;68276;49.326;8.690;2024-02-23T09:32:55;98495.91;;;8.41;63.91
78888;BME280;68276;49.326;8.690;2024-02-23T09:35:21;98494.44;;;8.45;62.58
78888;BME280;68276;49.326;8.690;2024-02-23T09:37:46;98495.34;;;8.63;63.49
78888;BME280;68276;49.326;8.690;2024-02-23T09:40:12;98499.81;;;8.69;62.56
78888;BME280;68276;49.326;8.690;2024-02-23T09:42:38;98511.66;;;8.80;62.88
78888;BME280;68276;49.326;8.690;2024-02-23T09:45:04;98496.56;;;8.67;63.13
78888;BME280;68276;49.326;8.690;2024-02-23T09:47:31;98491.34;;;8.97;62.51
78888;BME280;68276;49.326;8.690;2024-02-23T09:49:57;98498.88;;;9.06;61.95
78888;BME280;68276;49.326;8.690;2024-02-23T09:52:22;98485.09;;;9.03;61.21
78888;BME280;68276;49.326;8.690;2024-02-23T09:54:48;98497.41;;;9.10;61.66
78888;BME280;68276;49.326;8.690;2024-02-23T09:57:15;98489.16;;;9.12;60.65
78888;BME280;68276;49.326;8.690;2024-02-23T09:59:42;98502.31;;;9.13;60.77
78888;BME280;68276;49.326;8.690;2024-02-23T10:02:09;98495.13;;;9.14;60.85
78888;BME280;68276;49.326;8.690;2024-02-23T10:04:35;98493.19;;;9.21;61.33
78888;BME280;68276;49.326;8.690;2024-02-23T10:07:01;98503.69;;;8.98;61.57
78888;BME280;68276;49.326;8.690;2024-02-23T10:09:27;98499.81;;;8.94;61.69
78888;BME280;68276;49.326;8.690;2024-02-23T10:11:55;98501.84;;;8.74;62.13
78888;BME280;68276;49.326;8.690;2024-02-23T10:14:21;98512.22;;;8.64;62.77
78888;BME280;68276;49.326;8.690;2024-02-23T10:16:47;98506.91;;;8.57;62.85
78888;BME280;68276;49.326;8.690;2024-02-23T10:19:12;98509.78;;;8.56;61.81
78888;BME280;68276;49.326;8.690;2024-02-23T10:21:37;98517.63;;;8.82;61.63
78888;BME280;68276;49.326;8.690;2024-02-23T10:24:05;98520.09;;;9.08;62.25
78888;BME280;68276;49.326;8.690;2024-02-23T10:26:30;98504.47;;;9.23;60.66
78888;BME280;68276;49.326;8.690;2024-02-23T10:28:55;98522.38;;;9.47;60.04
78888;BME280;68276;49.326;8.690;2024-02-23T10:31:22;98524.66;;;9.25;59.83
78888;BME280;68276;49.326;8.690;2024-02-23T10:33:50;98520.16;;;9.62;59.10
78888;BME280;68276;49.326;8.690;2024-02-23T10:36:17;98519.88;;;9.70;58.42
78888;BME280;68276;49.326;8.690;2024-02-23T10:38:45;98521.53;;;9.71;57.76
78888;BME280;68276;49.326;8.690;2024-02-23T10:41:13;98518.97;;;9.76;59.26
78888;BME280;68276;49.326;8.690;2024-02-23T10:43:47;98518.81;;;9.53;57.82
78888;BME280;68276;49.326;8.690;2024-02-23T10:46:12;98515.03;;;9.18;59.65
78888;BME280;68276;49.326;8.690;2024-02-23T10:48:41;98516.94;;;9.36;59.04
78888;BME280;68276;49.326;8.690;2024-02-23T10:51:07;98518.28;;;9.63;59.85
78888;BME280;68276;49.326;8.690;2024-02-23T10:53:33;98536.38;;;9.85;59.44
78888;BME280;68276;49.326;8.690;2024-02-23T10:56:00;98527.31;;;9.68;58.64
78888;BME280;68276;49.326;8.690;2024-02-23T10:58:26;98519.84;;;10.06;58.24
78888;BME280;68276;49.326;8.690;2024-02-23T11:00:59;98533.09;;;10.01;57.79
78888;BME280;68276;49.326;8.690;2024-02-23T11:03:32;98514.00;;;9.80;56.61
78888;BME280;68276;49.326;8.690;2024-02-23T11:06:00;98508.03;;;9.78;58.13
78888;BME280;68276;49.326;8.690;2024-02-23T11:08:34;98509.44;;;9.80;58.51
78888;BME280;68276;49.326;8.690;2024-02-23T11:11:10;98503.91;;;9.93;58.39
78888;BME280;68276;49.326;8.690;2024-02-23T11:13:40;98494.22;;;10.10;58.18
78888;BME280;68276;49.326;8.690;2024-02-23T11:16:07;98502.56;;;9.84;57.67
78888;BME280;68276;49.326;8.690;2024-02-23T11:18:35;98494.81;;;9.94;56.83
78888;BME280;68276;49.326;8.690;2024-02-23T11:21:02;98509.19;;;9.82;56.46
78888;BME280;68276;49.326;8.690;2024-02-23T11:23:43;98493.50;;;9.67;57.95
78888;BME280;68276;49.326;8.690;2024-02-23T11:26:10;98493.31;;;9.98;57.23
78888;BME280;68276;49.326;8.690;2024-02-23T11:28:52;98495.06;;;10.41;56.79
78888;BME280;68276;49.326;8.690;2024-02-23T11:31:21;98488.66;;;10.23;56.77
78888;BME280;68276;49.326;8.690;2024-02-23T11:33:49;98486.34;;;10.27;56.72
78888;BME280;68276;49.326;8.690;2024-02-23T11:36:34;98483.72;;;10.38;55.61
78888;BME280;68276;49.326;8.690;2024-02-23T11:39:01;98476.22;;;10.82;54.88
78888;BME280;68276;49.326;8.690;2024-02-23T11:41:28;98475.06;;;11.01;55.03
78888;BME280;68276;49.326;8.690;2024-02-23T11:43:55;98471.75;;;10.76;54.49
78888;BME280;68276;49.326;8.690;2024-02-23T11:46:21;98477.41;;;10.45;54.44
78888;BME280;68276;49.326;8.690;2024-02-23T11:48:48;98482.31;;;10.36;54.98
78888;BME280;68276;49.326;8.690;2024-02-23T11:51:19;98477.56;;;9.90;55.59
78888;BME280;68276;49.326;8.690;2024-02-23T11:53:44;98467.09;;;10.00;55.71
78888;BME280;68276;49.326;8.690;2024-02-23T11:56:10;98471.94;;;10.10;56.17
78888;BME280;68276;49.326;8.690;2024-02-23T11:58:36;98470.91;;;10.11;55.53
78888;BME280;68276;49.326;8.690;2024-02-23T12:01:03;98467.75;;;10.14;56.05
78888;BME280;68276;49.326;8.690;2024-02-23T12:03:29;98460.69;;;10.19;56.51
78888;BME280;68276;49.326;8.690;2024-02-23T12:05:58;98463.25;;;10.08;56.63
78888;BME280;68276;49.326;8.690;2024-02-23T12:08:25;98463.25;;;10.08;56.72
78888;BME280;68276;49.326;8.690;2024-02-23T12:10:52;98461.22;;;10.10;57.28
78888;BME280;68276;49.326;8.690;2024-02-23T12:13:17;98450.84;;;10.13;57.35
78888;BME280;68276;49.326;8.690;2024-02-23T12:15:43;98459.81;;;9.89;57.12
78888;BME280;68276;49.326;8.690;2024-02-23T12:18:10;98450.28;;;9.93;57.22
78888;BME280;68276;49.326;8.690;2024-02-23T12:20:36;98463.09;;;9.91;57.35
78888;BME280;68276;49.326;8.690;2024-02-23T12:23:01;98459.81;;;9.89;57.62
78888;BME280;68276;49.326;8.690;2024-02-23T12:25:29;98465.41;;;9.70;57.97
78888;BME280;68276;49.326;8.690;2024-02-23T12:27:55;98466.69;;;9.67;58.23
78888;BME280;68276;49.326;8.690;2024-02-23T12:30:22;98469.22;;;9.62;58.49
78888;BME280;68276;49.326;8.690;2024-02-23T12:32:47;98472.97;;;9.43;59.44
78888;BME280;68276;49.326;8.690;2024-02-23T12:35:14;98479.50;;;9.47;59.84
78888;BME280;68276;49.326;8.690;2024-02-23T12:37:39;98469.13;;;9.51;59.16
78888;BME280;68276;49.326;8.690;2024-02-23T12:40:07;98471.53;;;9.59;59.19
78888;BME280;68276;49.326;8.690;2024-02-23T12:42:32;98470.78;;;9.34;59.44
78888;BME280;68276;49.326;8.690;2024-02-23T12:44:58;98469.22;;;9.44;59.30
78888;BME280;68276;49.326;8.690;2024-02-23T12:47:24;98469.47;;;9.61;60.46
78888;BME280;68276;49.326;8.690;2024-02-23T12:49:49;98467.53;;;9.97;59.49
78888;BME280;68276;49.326;8.690;2024-02-23T12:52:14;98470.81;;;10.17;58.41
78888;BME280;68276;49.326;8.690;2024-02-23T12:54:40;98456.66;;;10.10;58.03
78888;BME280;68276;49.326;8.690;2024-02-23T12:57:07;98460.69;;;10.19;57.99
78888;BME280;68276;49.326;8.690;2024-02-23T12:59:32;98464.56;;;9.87;58.27
78888;BME280;68276;49.326;8.690;2024-02-23T13:01:58;98459.72;;;10.14;57.96
78888;BME280;68276;49.326;8.690;2024-02-23T13:04:23;98454.63;;;10.35;57.80